Time;durP1;ratioP1;P1;durP2;ratioP2;P2;SDS_P1;SDS_P2;PMS_P1;PMS_P2;Temp;Humidity;BMP_temperature;BMP_pressure;BME280_temperature;BME280_humidity;BME280_pressure;Samples;Min_cycle;Max_cycle;Signal;HPM_P1;HPM_P2
2022/01/26 00:00:18;;;;;;;124.47;52.63;;;;;;;;;;4952825;28;20518;-80
2022/01/26 00:05:49;;;;;;;123.83;52.83;;;;;;;;;;4952544;28;20445;-80
2022/01/26 00:08:16;;;;;;;124.50;52.03;;;;;;;;;;4951644;28;20442;-80
2022/01/26 00:10:42;;;;;;;112.70;49.90;;;;;;;;;;4949866;28;20588;-80
2022/01/26 00:13:08;;;;;;;108.37;46.33;;;;;;;;;;4952245;28;20410;-80
2022/01/26 00:15:34;;;;;;;111.33;49.63;;;;;;;;;;4948869;28;21774;-80
2022/01/26 00:18:00;;;;;;;108.87;47.27;;;;;;;;;;4951470;28;20504;-80
2022/01/26 00:20:35;;;;;;;104.23;48.57;;;;;;;;;;4950218;28;20501;-80
2022/01/26 00:25:42;;;;;;;102.93;47.87;;;;;;;;;;4951539;28;20584;-80
2022/01/26 00:28:34;;;;;;;114.97;50.83;;;;;;;;;;4949411;28;20430;-80
2022/01/26 00:38:50;;;;;;;119.50;50.73;;;;;;;;;;4954087;28;21305;-80
2022/01/26 00:41:18;;;;;;;134.77;53.60;;;;;;;;;;4952029;28;21315;-80
2022/01/26 00:43:49;;;;;;;130.07;56.27;;;;;;;;;;4952167;28;20444;-80
2022/01/26 00:46:16;;;;;;;121.93;55.00;;;;;;;;;;4954278;28;21434;-80
2022/01/26 00:48:43;;;;;;;127.13;54.70;;;;;;;;;;4952869;28;20521;-80
2022/01/26 00:51:11;;;;;;;114.07;50.97;;;;;;;;;;4953767;28;20464;-80
2022/01/26 00:53:52;;;;;;;127.00;52.87;;;;;;;;;;4953121;28;20433;-80
2022/01/26 00:56:18;;;;;;;116.63;50.43;;;;;;;;;;4968940;28;21216;-80
2022/01/26 00:58:44;;;;;;;121.47;50.93;;;;;;;;;;4951093;28;20438;-80
2022/01/26 01:01:10;;;;;;;122.50;52.00;;;;;;;;;;4953281;28;20430;-80
2022/01/26 01:03:41;;;;;;;124.43;50.73;;;;;;;;;;4953763;28;20422;-80
2022/01/26 01:06:31;;;;;;;119.10;47.97;;;;;;;;;;4969335;28;20442;-80
2022/01/26 01:08:56;;;;;;;122.50;52.43;;;;;;;;;;4951904;28;20425;-80
2022/01/26 01:11:22;;;;;;;121.30;51.03;;;;;;;;;;4953230;28;20828;-81
2022/01/26 01:13:49;;;;;;;127.37;52.73;;;;;;;;;;4953548;28;21298;-80
2022/01/26 01:16:19;;;;;;;127.83;53.17;;;;;;;;;;4954513;28;20445;-80
2022/01/26 01:18:53;;;;;;;129.13;52.83;;;;;;;;;;4958419;28;20470;-80
2022/01/26 01:27:17;;;;;;;138.70;56.40;;;;;;;;;;4957934;28;20583;-80
2022/01/26 01:32:10;;;;;;;144.27;59.13;;;;;;;;;;4956847;28;20529;-80
2022/01/26 01:34:38;;;;;;;141.17;57.60;;;;;;;;;;4937686;28;20430;-80
2022/01/26 01:37:07;;;;;;;145.80;60.20;;;;;;;;;;4958187;28;20422;-80
2022/01/26 01:39:33;;;;;;;139.60;59.27;;;;;;;;;;4953044;28;20521;-80
2022/01/26 01:42:00;;;;;;;138.60;59.33;;;;;;;;;;4955250;28;20441;-80
2022/01/26 01:44:26;;;;;;;136.80;58.50;;;;;;;;;;4950683;28;20537;-80
2022/01/26 01:46:54;;;;;;;151.93;61.70;;;;;;;;;;4956026;28;20430;-80
2022/01/26 01:49:20;;;;;;;140.57;58.23;;;;;;;;;;4957542;28;20512;-80
2022/01/26 01:52:00;;;;;;;143.67;59.60;;;;;;;;;;4955633;28;20422;-80
2022/01/26 01:54:27;;;;;;;143.03;60.07;;;;;;;;;;4952358;28;20446;-80
2022/01/26 01:56:56;;;;;;;135.30;56.47;;;;;;;;;;4957629;28;21178;-80
2022/01/26 01:59:23;;;;;;;154.53;60.23;;;;;;;;;;4956181;28;21405;-80
2022/01/26 02:01:49;;;;;;;148.03;60.27;;;;;;;;;;4966467;28;20488;-81
2022/01/26 02:04:15;;;;;;;147.17;59.70;;;;;;;;;;4954778;28;20434;-81
2022/01/26 02:06:43;;;;;;;130.90;56.17;;;;;;;;;;4953773;28;20426;-81
2022/01/26 02:09:10;;;;;;;147.27;60.90;;;;;;;;;;4954797;28;21044;-81
2022/01/26 02:11:43;;;;;;;142.07;59.57;;;;;;;;;;4954162;28;20465;-81
2022/01/26 02:14:16;;;;;;;144.87;57.53;;;;;;;;;;4955856;28;20422;-81
2022/01/26 02:16:50;;;;;;;154.40;61.93;;;;;;;;;;4958853;28;20537;-81
2022/01/26 03:03:13;;;;;;;179.00;67.50;;;;;;;;;;4955502;28;20529;-81
2022/01/26 03:05:24;;;;;;;181.23;66.83;;;;;;;;;;4954891;28;20430;-81
2022/01/26 03:08:04;;;;;;;220.23;76.57;;;;;;;;;;4952978;28;20446;-81
2022/01/26 03:10:48;;;;;;;206.70;72.93;;;;;;;;;;4954995;28;20512;-81
2022/01/26 03:13:20;;;;;;;198.43;69.33;;;;;;;;;;4953472;28;20488;-81
2022/01/26 03:15:52;;;;;;;185.97;66.03;;;;;;;;;;4954728;28;20473;-81
2022/01/26 03:20:46;;;;;;;209.67;70.43;;;;;;;;;;4954126;28;20450;-81
2022/01/26 03:28:47;;;;;;;196.67;68.07;;;;;;;;;;4954973;28;20463;-81
2022/01/26 03:34:03;;;;;;;181.50;64.87;;;;;;;;;;4954693;28;20530;-81
2022/01/26 03:36:33;;;;;;;214.37;74.57;;;;;;;;;;4968484;28;21279;-81
2022/01/26 03:39:05;;;;;;;209.67;71.63;;;;;;;;;;4951702;28;20503;-81
2022/01/26 03:41:40;;;;;;;213.67;72.60;;;;;;;;;;4953329;28;20541;-81
2022/01/26 03:44:07;;;;;;;204.60;71.60;;;;;;;;;;4952672;28;20429;-81
2022/01/26 03:46:33;;;;;;;199.43;70.00;;;;;;;;;;4952495;28;21544;-81
2022/01/26 03:48:59;;;;;;;172.83;63.87;;;;;;;;;;4954845;28;20414;-81
2022/01/26 03:51:26;;;;;;;175.77;65.70;;;;;;;;;;4951064;28;20453;-81
2022/01/26 03:53:52;;;;;;;178.67;64.90;;;;;;;;;;4951952;28;20434;-81
2022/01/26 03:56:18;;;;;;;207.57;67.07;;;;;;;;;;4955295;28;20411;-81
2022/01/26 03:58:44;;;;;;;188.03;65.13;;;;;;;;;;4969505;28;20472;-81
2022/01/26 04:01:10;;;;;;;190.53;65.90;;;;;;;;;;4951100;28;20545;-81
2022/01/26 04:03:36;;;;;;;170.27;62.43;;;;;;;;;;4954306;28;20436;-81
2022/01/26 04:06:03;;;;;;;163.83;59.30;;;;;;;;;;4955989;28;20430;-81
2022/01/26 04:08:31;;;;;;;164.23;59.80;;;;;;;;;;4956264;28;20426;-81
2022/01/26 04:11:42;;;;;;;167.57;60.03;;;;;;;;;;4951872;28;20449;-81
2022/01/26 04:13:46;;;;;;;156.43;56.83;;;;;;;;;;4952773;28;20430;-81
2022/01/26 04:16:12;;;;;;;148.77;57.87;;;;;;;;;;4954397;28;20536;-81
2022/01/26 04:18:40;;;;;;;144.40;57.27;;;;;;;;;;4954015;28;20425;-80
2022/01/26 04:21:38;;;;;;;154.03;57.47;;;;;;;;;;4954321;28;20516;-81
2022/01/26 04:26:26;;;;;;;166.73;60.27;;;;;;;;;;4953205;28;20465;-80
2022/01/26 04:28:58;;;;;;;165.67;59.43;;;;;;;;;;4950060;28;20445;-81
2022/01/26 04:31:24;;;;;;;156.37;57.90;;;;;;;;;;4952323;28;20446;-81
2022/01/26 04:33:51;;;;;;;148.37;58.70;;;;;;;;;;4951816;28;20553;-81
2022/01/26 04:36:25;;;;;;;162.77;58.27;;;;;;;;;;4952098;28;22506;-81
2022/01/26 04:38:55;;;;;;;142.10;55.47;;;;;;;;;;4952221;28;20436;-81
2022/01/26 04:41:36;;;;;;;148.83;56.97;;;;;;;;;;4952942;28;20419;-81
2022/01/26 04:44:11;;;;;;;125.80;50.17;;;;;;;;;;4954932;28;21068;-81
2022/01/26 04:46:38;;;;;;;126.60;49.63;;;;;;;;;;4950407;28;20438;-81
2022/01/26 04:49:04;;;;;;;116.37;50.03;;;;;;;;;;4967492;28;20430;-81
2022/01/26 04:51:30;;;;;;;110.17;48.23;;;;;;;;;;4959115;28;20874;-81
2022/01/26 04:53:56;;;;;;;114.13;47.50;;;;;;;;;;4957732;28;20421;-81
2022/01/26 04:56:22;;;;;;;119.83;48.70;;;;;;;;;;4960193;28;20422;-81
2022/01/26 04:58:48;;;;;;;114.57;50.00;;;;;;;;;;4957757;28;21351;-81
2022/01/26 05:01:14;;;;;;;118.20;49.40;;;;;;;;;;4959425;28;20436;-81
2022/01/26 05:03:40;;;;;;;118.00;48.23;;;;;;;;;;4958273;28;20450;-81
2022/01/26 05:06:07;;;;;;;129.77;51.23;;;;;;;;;;4959102;28;20508;-81
2022/01/26 05:08:33;;;;;;;129.40;51.27;;;;;;;;;;4958627;28;21441;-81
2022/01/26 05:11:00;;;;;;;128.77;53.37;;;;;;;;;;4972036;28;20454;-81
2022/01/26 05:13:26;;;;;;;110.47;48.40;;;;;;;;;;4957339;28;20606;-81
2022/01/26 05:15:53;;;;;;;119.10;49.33;;;;;;;;;;4958644;28;20537;-81
2022/01/26 05:18:19;;;;;;;123.53;51.97;;;;;;;;;;4959817;28;20525;-81
2022/01/26 05:20:45;;;;;;;120.87;52.07;;;;;;;;;;4959092;28;20488;-81
2022/01/26 05:23:11;;;;;;;118.63;51.67;;;;;;;;;;4970991;28;20457;-81
2022/01/26 05:25:37;;;;;;;123.80;51.50;;;;;;;;;;4955853;28;20424;-81
2022/01/26 05:28:03;;;;;;;124.43;52.07;;;;;;;;;;4961252;28;20488;-81
2022/01/26 05:30:29;;;;;;;121.83;51.40;;;;;;;;;;4959962;28;20450;-81
2022/01/26 05:32:55;;;;;;;130.07;51.97;;;;;;;;;;4960362;28;21286;-81
2022/01/26 05:35:21;;;;;;;138.57;54.20;;;;;;;;;;4957384;28;20494;-81
2022/01/26 05:37:47;;;;;;;135.03;53.83;;;;;;;;;;4961977;28;20483;-81
2022/01/26 05:40:14;;;;;;;149.30;55.97;;;;;;;;;;4959901;28;20429;-81
2022/01/26 05:42:41;;;;;;;130.63;52.17;;;;;;;;;;4959115;28;20430;-81
2022/01/26 05:45:17;;;;;;;127.50;52.73;;;;;;;;;;4957349;28;21356;-81
2022/01/26 05:47:43;;;;;;;126.93;52.33;;;;;;;;;;4959372;28;20434;-81
2022/01/26 05:50:10;;;;;;;123.70;52.03;;;;;;;;;;4959803;28;20453;-81
2022/01/26 05:52:36;;;;;;;123.10;51.60;;;;;;;;;;4958927;28;20421;-81
2022/01/26 05:55:02;;;;;;;115.10;49.47;;;;;;;;;;4954723;28;20427;-81
2022/01/26 05:57:28;;;;;;;119.80;50.70;;;;;;;;;;4958678;28;20406;-82
2022/01/26 05:59:55;;;;;;;127.00;54.00;;;;;;;;;;4960373;28;21151;-82
2022/01/26 06:02:21;;;;;;;130.03;52.93;;;;;;;;;;4957890;28;20436;-82
2022/01/26 06:04:47;;;;;;;131.53;53.97;;;;;;;;;;4955767;28;20426;-82
2022/01/26 06:07:13;;;;;;;139.90;53.83;;;;;;;;;;4954954;28;20509;-82
2022/01/26 06:09:39;;;;;;;128.87;53.10;;;;;;;;;;4971348;28;20418;-82
2022/01/26 06:12:06;;;;;;;127.73;52.00;;;;;;;;;;4952338;28;20511;-82
2022/01/26 06:14:32;;;;;;;126.33;51.40;;;;;;;;;;4966496;28;20421;-82
2022/01/26 06:16:58;;;;;;;142.77;53.77;;;;;;;;;;4966141;28;21266;-81
2022/01/26 06:19:24;;;;;;;143.13;53.93;;;;;;;;;;4949129;28;20441;-81
2022/01/26 06:21:50;;;;;;;135.57;53.43;;;;;;;;;;4950045;28;20426;-81
2022/01/26 06:24:16;;;;;;;153.40;57.77;;;;;;;;;;4955045;28;20437;-81
2022/01/26 06:26:42;;;;;;;152.17;58.23;;;;;;;;;;4950151;28;20426;-82
2022/01/26 06:29:08;;;;;;;142.20;55.03;;;;;;;;;;4953611;28;20434;-82
2022/01/26 06:31:38;;;;;;;158.50;59.17;;;;;;;;;;4948803;28;20469;-82
2022/01/26 06:34:05;;;;;;;132.83;54.03;;;;;;;;;;4959394;28;20462;-82
2022/01/26 06:36:31;;;;;;;139.33;55.60;;;;;;;;;;4965140;28;21196;-82
2022/01/26 06:38:57;;;;;;;133.37;53.67;;;;;;;;;;4951190;28;20433;-82
2022/01/26 06:41:25;;;;;;;139.47;55.50;;;;;;;;;;4951542;28;20430;-82
2022/01/26 06:44:00;;;;;;;150.13;56.83;;;;;;;;;;4967820;28;20515;-82
2022/01/26 06:46:37;;;;;;;151.43;57.83;;;;;;;;;;4951748;28;20484;-82
2022/01/26 06:51:29;;;;;;;159.87;59.53;;;;;;;;;;4952677;28;20489;-82
2022/01/26 06:53:55;;;;;;;152.00;57.97;;;;;;;;;;4956716;28;20433;-82
2022/01/26 06:56:21;;;;;;;163.57;59.70;;;;;;;;;;4957362;28;20437;-82
2022/01/26 06:58:47;;;;;;;163.53;57.80;;;;;;;;;;4955197;28;20448;-82
2022/01/26 07:01:14;;;;;;;159.17;60.57;;;;;;;;;;4952768;28;20520;-82
2022/01/26 07:03:40;;;;;;;162.07;60.90;;;;;;;;;;4952312;28;20445;-82
2022/01/26 07:06:06;;;;;;;165.17;61.80;;;;;;;;;;4953103;28;20502;-82
2022/01/26 07:08:32;;;;;;;150.57;57.30;;;;;;;;;;4965328;28;20426;-82
2022/01/26 07:10:59;;;;;;;153.27;59.53;;;;;;;;;;4952456;28;23678;-82
2022/01/26 07:13:26;;;;;;;162.87;60.10;;;;;;;;;;4950480;28;20943;-83
2022/01/26 07:21:31;;;;;;;146.07;55.00;;;;;;;;;;4951184;28;20472;-83
2022/01/26 07:23:58;;;;;;;160.70;56.07;;;;;;;;;;4949289;28;20434;-81
2022/01/26 07:26:28;;;;;;;146.70;54.33;;;;;;;;;;4949877;28;20438;-81
2022/01/26 07:28:55;;;;;;;164.03;58.47;;;;;;;;;;4951952;28;20515;-82
2022/01/26 07:31:22;;;;;;;157.60;56.67;;;;;;;;;;4951128;28;21493;-82
2022/01/26 07:33:53;;;;;;;165.87;56.70;;;;;;;;;;4947178;28;20454;-83
2022/01/26 07:36:19;;;;;;;168.43;56.90;;;;;;;;;;4949787;28;20441;-82
2022/01/26 07:38:49;;;;;;;177.97;59.80;;;;;;;;;;4947037;28;20537;-81
2022/01/26 07:41:15;;;;;;;170.50;57.73;;;;;;;;;;4946792;28;20430;-81
2022/01/26 07:43:41;;;;;;;186.00;59.00;;;;;;;;;;4951863;28;20422;-81
2022/01/26 07:46:09;;;;;;;188.23;61.57;;;;;;;;;;4951426;28;20549;-82
2022/01/26 07:48:36;;;;;;;191.10;61.40;;;;;;;;;;4964118;28;21323;-81
2022/01/26 07:51:02;;;;;;;179.27;59.83;;;;;;;;;;4951311;28;20461;-82
2022/01/26 07:53:29;;;;;;;175.50;58.43;;;;;;;;;;4948584;28;20480;-82
2022/01/26 07:55:56;;;;;;;186.97;59.97;;;;;;;;;;4953023;28;20434;-82
2022/01/26 07:58:22;;;;;;;166.07;58.77;;;;;;;;;;4968653;28;21374;-82
2022/01/26 08:00:48;;;;;;;191.70;72.40;;;;;;;;;;4949651;28;20441;-83
2022/01/26 08:03:15;;;;;;;174.00;60.17;;;;;;;;;;4966593;28;20432;-83
2022/01/26 08:05:41;;;;;;;160.70;56.50;;;;;;;;;;4950335;28;20422;-83
2022/01/26 08:08:08;;;;;;;140.33;51.30;;;;;;;;;;4945112;28;20433;-82
2022/01/26 08:10:34;;;;;;;128.23;49.23;;;;;;;;;;4952457;28;21262;-81
2022/01/26 08:13:00;;;;;;;120.73;47.23;;;;;;;;;;4950650;28;20435;-81
2022/01/26 08:15:27;;;;;;;127.70;49.57;;;;;;;;;;4950333;28;20541;-82
2022/01/26 08:17:53;;;;;;;111.93;44.63;;;;;;;;;;4949549;28;20442;-82
2022/01/26 08:20:23;;;;;;;115.50;45.73;;;;;;;;;;4948010;28;20422;-82
2022/01/26 08:22:51;;;;;;;104.43;44.53;;;;;;;;;;4947806;28;20447;-83
2022/01/26 08:25:18;;;;;;;116.80;46.33;;;;;;;;;;4941857;28;20430;-81
2022/01/26 08:27:51;;;;;;;113.00;46.03;;;;;;;;;;4964292;28;20434;-82
2022/01/26 08:30:19;;;;;;;108.90;43.80;;;;;;;;;;4950797;28;20481;-82
2022/01/26 08:32:45;;;;;;;119.13;45.07;;;;;;;;;;4953893;28;20455;-82
2022/01/26 08:35:12;;;;;;;106.87;42.53;;;;;;;;;;4965632;28;20513;-82
2022/01/26 08:37:38;;;;;;;101.80;43.90;;;;;;;;;;4941760;28;20448;-83
2022/01/26 08:40:05;;;;;;;97.20;42.27;;;;;;;;;;4948899;28;20428;-82
2022/01/26 08:42:32;;;;;;;103.67;43.27;;;;;;;;;;4949777;28;20426;-81
2022/01/26 08:44:58;;;;;;;98.43;42.80;;;;;;;;;;4949798;28;20425;-82
2022/01/26 08:47:24;;;;;;;104.30;43.23;;;;;;;;;;4950144;28;20496;-81
2022/01/26 08:49:50;;;;;;;100.20;42.80;;;;;;;;;;4951315;28;21010;-82
2022/01/26 08:52:17;;;;;;;101.20;43.93;;;;;;;;;;4952073;28;20427;-82
2022/01/26 08:54:43;;;;;;;104.20;43.20;;;;;;;;;;4950762;28;20516;-82
2022/01/26 08:57:09;;;;;;;98.97;42.93;;;;;;;;;;4951000;28;20426;-81
2022/01/26 08:59:35;;;;;;;101.70;43.37;;;;;;;;;;4948397;28;20442;-81
2022/01/26 09:02:01;;;;;;;109.93;44.57;;;;;;;;;;4951567;28;20438;-81
2022/01/26 09:04:27;;;;;;;100.57;43.30;;;;;;;;;;4954118;28;20417;-82
2022/01/26 09:06:59;;;;;;;111.07;43.97;;;;;;;;;;4949807;28;20433;-82
2022/01/26 09:09:32;;;;;;;103.53;43.57;;;;;;;;;;4952312;28;20418;-81
2022/01/26 09:12:05;;;;;;;99.20;42.23;;;;;;;;;;4950465;28;20454;-82
2022/01/26 09:14:31;;;;;;;103.73;43.63;;;;;;;;;;4949307;28;20457;-82
2022/01/26 09:16:57;;;;;;;105.23;44.63;;;;;;;;;;4949773;28;20600;-82
2022/01/26 09:21:52;;;;;;;113.00;46.57;;;;;;;;;;4948981;28;20429;-81
2022/01/26 09:24:21;;;;;;;117.50;46.30;;;;;;;;;;4948824;28;20444;-83
2022/01/26 09:26:47;;;;;;;111.77;48.47;;;;;;;;;;4947788;28;21267;-83
2022/01/26 09:29:13;;;;;;;107.20;46.07;;;;;;;;;;4948423;28;20438;-82
2022/01/26 09:31:39;;;;;;;105.67;44.27;;;;;;;;;;4949800;28;20462;-81
2022/01/26 09:34:06;;;;;;;105.77;44.57;;;;;;;;;;4947227;28;20434;-81
2022/01/26 09:36:32;;;;;;;104.03;45.70;;;;;;;;;;4947752;28;20441;-81
2022/01/26 09:38:58;;;;;;;108.40;45.70;;;;;;;;;;4953902;28;20426;-81
2022/01/26 09:41:24;;;;;;;97.10;45.23;;;;;;;;;;4953672;28;21426;-81
2022/01/26 09:43:51;;;;;;;105.33;45.87;;;;;;;;;;4952255;28;21638;-81
2022/01/26 09:46:17;;;;;;;118.60;49.00;;;;;;;;;;4950906;28;20434;-81
2022/01/26 09:48:44;;;;;;;107.80;45.43;;;;;;;;;;4952186;28;20438;-82
2022/01/26 09:51:14;;;;;;;104.47;45.30;;;;;;;;;;4951544;28;20450;-81
2022/01/26 09:53:40;;;;;;;111.73;46.50;;;;;;;;;;4967532;28;20434;-80
2022/01/26 09:56:06;;;;;;;114.00;47.73;;;;;;;;;;4950022;28;20433;-81
2022/01/26 09:58:32;;;;;;;114.50;48.17;;;;;;;;;;4951055;28;20446;-81
2022/01/26 10:01:00;;;;;;;102.53;44.73;;;;;;;;;;4952790;28;20464;-81
2022/01/26 10:03:29;;;;;;;107.23;45.40;;;;;;;;;;4950767;28;21402;-82
2022/01/26 10:05:56;;;;;;;104.10;45.20;;;;;;;;;;4955018;28;20430;-82
2022/01/26 10:08:50;;;;;;;108.17;45.97;;;;;;;;;;4951556;28;20449;-81
2022/01/26 10:18:58;;;;;;;105.87;46.00;;;;;;;;;;4954156;28;20430;-82
2022/01/26 10:21:24;;;;;;;99.40;44.40;;;;;;;;;;4951253;28;20425;-81
2022/01/26 10:23:57;;;;;;;96.93;44.67;;;;;;;;;;4952517;28;20441;-81
2022/01/26 10:26:23;;;;;;;93.23;43.33;;;;;;;;;;4953043;28;20418;-81
2022/01/26 10:28:57;;;;;;;97.57;44.00;;;;;;;;;;4947713;28;20536;-82
2022/01/26 10:31:23;;;;;;;100.90;44.17;;;;;;;;;;4952344;28;20704;-80
2022/01/26 10:34:00;;;;;;;94.70;43.73;;;;;;;;;;4954040;28;20513;-80
2022/01/26 10:36:37;;;;;;;89.70;43.30;;;;;;;;;;4953348;28;20432;-81
2022/01/26 10:39:03;;;;;;;98.80;43.77;;;;;;;;;;4953513;28;20533;-80
2022/01/26 10:41:29;;;;;;;98.20;43.17;;;;;;;;;;4954304;28;20426;-81
2022/01/26 10:43:57;;;;;;;92.70;41.63;;;;;;;;;;4950106;28;20528;-81
2022/01/26 10:46:32;;;;;;;92.80;41.43;;;;;;;;;;4954104;28;20464;-83
2022/01/26 10:49:18;;;;;;;97.20;44.20;;;;;;;;;;4949793;28;21275;-83
2022/01/26 10:54:45;;;;;;;91.00;42.90;;;;;;;;;;4951975;28;20514;-82
2022/01/26 10:57:10;;;;;;;92.20;41.97;;;;;;;;;;4952170;28;20429;-82
2022/01/26 10:59:40;;;;;;;89.97;42.53;;;;;;;;;;4950501;28;20444;-83
2022/01/26 11:02:08;;;;;;;88.97;42.53;;;;;;;;;;4966406;28;20437;-81
2022/01/26 11:04:35;;;;;;;96.67;44.60;;;;;;;;;;4949348;28;20429;-83
2022/01/26 11:07:03;;;;;;;99.60;44.10;;;;;;;;;;4950086;28;21223;-82
2022/01/26 11:09:32;;;;;;;94.10;43.80;;;;;;;;;;4948971;28;20488;-81
2022/01/26 11:12:06;;;;;;;96.17;44.27;;;;;;;;;;4968738;28;20452;-81
2022/01/26 11:14:43;;;;;;;97.00;45.07;;;;;;;;;;4948081;28;20425;-80
2022/01/26 11:17:10;;;;;;;90.97;43.27;;;;;;;;;;4959387;28;20433;-82
2022/01/26 11:19:44;;;;;;;99.30;46.73;;;;;;;;;;4945368;28;20437;-81
2022/01/26 11:22:11;;;;;;;97.13;43.70;;;;;;;;;;4953569;28;20429;-82
2022/01/26 11:24:47;;;;;;;91.87;43.40;;;;;;;;;;4952783;28;20989;-82
2022/01/26 11:27:14;;;;;;;96.73;43.33;;;;;;;;;;4950356;28;21097;-80
2022/01/26 11:29:45;;;;;;;93.77;44.33;;;;;;;;;;4952584;28;20414;-80
2022/01/26 11:32:33;;;;;;;96.27;43.97;;;;;;;;;;4949837;28;20434;-80
2022/01/26 11:35:01;;;;;;;94.03;42.70;;;;;;;;;;4953324;28;20938;-81
2022/01/26 11:37:42;;;;;;;88.03;43.30;;;;;;;;;;4952812;28;20433;-81
2022/01/26 11:45:28;;;;;;;83.67;40.97;;;;;;;;;;4954685;28;20528;-79
2022/01/26 11:48:18;;;;;;;81.50;39.50;;;;;;;;;;4951682;28;20508;-79
2022/01/26 11:50:47;;;;;;;74.30;37.63;;;;;;;;;;4946895;28;20489;-80
2022/01/26 11:53:16;;;;;;;84.17;39.37;;;;;;;;;;4952316;28;21180;-81
2022/01/26 11:55:47;;;;;;;89.90;42.03;;;;;;;;;;4966623;28;21121;-81
2022/01/26 11:58:16;;;;;;;83.60;40.70;;;;;;;;;;4964668;28;20442;-81
2022/01/26 12:03:33;;;;;;;81.80;39.57;;;;;;;;;;4951194;28;20425;-81
2022/01/26 12:06:00;;;;;;;83.83;41.10;;;;;;;;;;4962751;28;20430;-80
2022/01/26 12:08:31;;;;;;;84.60;40.07;;;;;;;;;;4948594;28;20449;-81
2022/01/26 12:10:58;;;;;;;73.00;37.40;;;;;;;;;;4948673;28;20454;-81
2022/01/26 12:13:29;;;;;;;79.60;39.30;;;;;;;;;;4965670;28;20426;-79
2022/01/26 12:15:58;;;;;;;85.10;40.30;;;;;;;;;;4964628;28;20422;-79
2022/01/26 12:32:28;;;;;;;87.03;40.37;;;;;;;;;;4952534;28;21344;-80
2022/01/26 12:45:23;;;;;;;78.07;38.97;;;;;;;;;;4951355;28;20415;-81
2022/01/26 12:47:53;;;;;;;87.50;42.90;;;;;;;;;;4947989;28;21353;-81
2022/01/26 12:50:20;;;;;;;84.17;39.47;;;;;;;;;;4964619;28;20450;-81
2022/01/26 12:52:47;;;;;;;85.17;40.87;;;;;;;;;;4950381;28;20434;-81
2022/01/26 12:55:20;;;;;;;88.57;42.53;;;;;;;;;;4952511;28;20414;-82
2022/01/26 12:57:46;;;;;;;86.37;41.23;;;;;;;;;;4946467;28;20426;-83
2022/01/26 13:00:13;;;;;;;85.23;40.83;;;;;;;;;;4942645;28;20706;-83
2022/01/26 13:02:39;;;;;;;89.90;42.80;;;;;;;;;;4947899;28;20493;-83
2022/01/26 13:05:06;;;;;;;79.50;40.57;;;;;;;;;;4961787;28;20484;-83
2022/01/26 13:07:32;;;;;;;84.37;41.40;;;;;;;;;;4947039;28;21295;-83
2022/01/26 13:09:58;;;;;;;89.40;40.43;;;;;;;;;;4950826;28;21292;-85
2022/01/26 13:12:31;;;;;;;84.90;40.80;;;;;;;;;;4955931;28;20441;-85
2022/01/26 13:15:24;;;;;;;83.30;39.73;;;;;;;;;;4953355;28;20428;-85
2022/01/26 13:17:55;;;;;;;87.50;42.67;;;;;;;;;;4949406;28;20429;-85
2022/01/26 13:20:43;;;;;;;89.50;41.87;;;;;;;;;;4955399;28;21809;-85
2022/01/26 13:23:36;;;;;;;93.67;42.87;;;;;;;;;;4951215;28;20857;-85
2022/01/26 13:26:20;;;;;;;79.43;39.80;;;;;;;;;;4967602;28;21125;-84
2022/01/26 13:52:33;;;;;;;74.40;35.47;;;;;;;;;;4953319;28;21239;-84
2022/01/26 13:58:02;;;;;;;61.93;29.63;;;;;;;;;;4950379;28;20405;-84
2022/01/26 14:00:31;;;;;;;58.90;29.23;;;;;;;;;;4964648;28;20438;-83
2022/01/26 14:03:01;;;;;;;66.67;32.77;;;;;;;;;;4950531;28;20496;-84
2022/01/26 14:05:27;;;;;;;72.27;34.00;;;;;;;;;;4953208;28;21308;-84
2022/01/26 14:07:56;;;;;;;65.47;32.43;;;;;;;;;;4950607;28;21255;-84
2022/01/26 14:10:23;;;;;;;65.93;31.33;;;;;;;;;;4953211;28;20457;-84
2022/01/26 14:12:49;;;;;;;60.97;29.97;;;;;;;;;;4952581;28;20494;-84
2022/01/26 14:15:23;;;;;;;53.57;27.53;;;;;;;;;;4954568;28;21445;-84
2022/01/26 14:20:42;;;;;;;49.60;24.83;;;;;;;;;;4951562;28;21769;-84
2022/01/26 14:25:32;;;;;;;46.63;24.80;;;;;;;;;;4951873;28;20434;-83
2022/01/26 14:28:04;;;;;;;48.63;24.37;;;;;;;;;;4950111;28;20434;-84
2022/01/26 14:30:53;;;;;;;49.20;25.40;;;;;;;;;;4948680;28;20548;-83
2022/01/26 14:54:58;;;;;;;52.77;28.63;;;;;;;;;;4930651;28;21303;-85
2022/01/26 15:21:30;;;;;;;50.90;26.07;;;;;;;;;;4945166;28;20433;-82
2022/01/26 15:33:29;;;;;;;50.40;25.70;;;;;;;;;;4948512;28;20430;-83
2022/01/26 15:42:13;;;;;;;49.03;26.10;;;;;;;;;;4950228;28;20456;-82
2022/01/26 15:52:21;;;;;;;59.77;29.70;;;;;;;;;;4948225;28;20459;-82
2022/01/26 16:05:59;;;;;;;59.03;30.40;;;;;;;;;;4951102;28;20442;-83
2022/01/26 16:16:44;;;;;;;57.60;28.47;;;;;;;;;;4950238;28;21163;-83
2022/01/26 16:28:13;;;;;;;55.43;27.93;;;;;;;;;;4950088;28;20425;-83
2022/01/26 16:36:16;;;;;;;68.93;31.77;;;;;;;;;;4952088;28;20465;-82
2022/01/26 17:11:55;;;;;;;71.50;35.10;;;;;;;;;;4951022;28;21333;-82
2022/01/26 18:49:54;;;;;;;120.43;53.17;;;;;;;;;;4966947;28;20783;-82
2022/01/26 18:52:20;;;;;;;110.53;49.50;;;;;;;;;;4969962;28;21429;-82
2022/01/26 18:54:46;;;;;;;119.27;53.70;;;;;;;;;;4953026;28;21104;-83
2022/01/26 18:57:13;;;;;;;125.07;56.40;;;;;;;;;;4952109;28;21075;-84
2022/01/26 18:59:39;;;;;;;132.60;56.93;;;;;;;;;;4956448;28;20445;-84
2022/01/26 19:02:13;;;;;;;106.50;50.80;;;;;;;;;;4952800;28;20445;-84
2022/01/26 19:04:46;;;;;;;105.33;48.40;;;;;;;;;;4955899;28;21210;-83
2022/01/26 19:07:14;;;;;;;101.93;47.50;;;;;;;;;;4953750;28;20445;-84
2022/01/26 19:09:44;;;;;;;109.23;48.43;;;;;;;;;;4953326;28;20524;-83
2022/01/26 19:12:13;;;;;;;111.17;50.80;;;;;;;;;;4956348;28;20532;-82
2022/01/26 19:14:42;;;;;;;99.87;46.27;;;;;;;;;;4953849;28;21728;-84
2022/01/26 19:17:31;;;;;;;96.73;45.47;;;;;;;;;;4952054;28;20433;-84
2022/01/26 19:20:22;;;;;;;103.30;45.80;;;;;;;;;;4953121;28;20438;-84
2022/01/26 19:23:04;;;;;;;98.17;45.33;;;;;;;;;;4953205;28;20442;-83
2022/01/26 19:25:35;;;;;;;103.03;47.17;;;;;;;;;;4957220;28;20523;-82
2022/01/26 19:28:20;;;;;;;100.83;48.03;;;;;;;;;;4953371;28;20426;-84
2022/01/26 19:31:34;;;;;;;94.67;45.23;;;;;;;;;;4970090;28;20457;-84
2022/01/26 19:53:23;;;;;;;108.00;46.30;;;;;;;;;;4955741;28;20433;-87
2022/01/26 19:55:55;;;;;;;109.17;49.17;;;;;;;;;;4955927;28;20497;-87
2022/01/26 19:58:29;;;;;;;100.13;46.50;;;;;;;;;;4949483;28;20480;-86
2022/01/26 20:01:01;;;;;;;100.07;47.20;;;;;;;;;;4946172;28;20445;-87
2022/01/26 20:06:44;;;;;;;115.60;47.37;;;;;;;;;;4951756;28;20422;-86
2022/01/26 20:09:32;;;;;;;116.60;47.47;;;;;;;;;;4972537;28;20460;-87
2022/01/26 20:15:11;;;;;;;;;;;;;;;;;;;;;
2022/01/26 20:18:04;;;;;;;106.00;50.00;;;;;;;;;;4952848;28;20476;-84
2022/01/26 20:21:14;;;;;;;114.37;52.47;;;;;;;;;;4949157;28;20419;-83
2022/01/26 20:23:58;;;;;;;105.13;50.07;;;;;;;;;;4970988;28;21145;-84
2022/01/26 20:26:25;;;;;;;101.57;48.73;;;;;;;;;;4954853;28;20495;-84
2022/01/26 20:28:51;;;;;;;106.57;50.20;;;;;;;;;;4950419;28;20514;-82
2022/01/26 20:31:23;;;;;;;107.20;50.10;;;;;;;;;;4953215;28;20489;-83
2022/01/26 20:40:25;;;;;;;104.73;48.30;;;;;;;;;;4930114;28;20508;-83
2022/01/26 20:42:51;;;;;;;100.40;49.93;;;;;;;;;;4969562;28;20430;-83
2022/01/26 20:45:20;;;;;;;101.70;47.83;;;;;;;;;;4949978;28;21276;-83
2022/01/26 20:47:57;;;;;;;101.20;49.77;;;;;;;;;;4951981;28;20477;-83
2022/01/26 20:50:23;;;;;;;101.47;48.27;;;;;;;;;;4952105;28;20512;-82
2022/01/26 20:53:07;;;;;;;103.53;49.67;;;;;;;;;;4954531;28;20426;-82
2022/01/26 20:56:04;;;;;;;115.03;52.27;;;;;;;;;;4953272;28;20558;-83
2022/01/26 21:05:06;;;;;;;102.00;49.37;;;;;;;;;;4931543;28;20430;-84
2022/01/26 21:07:32;;;;;;;99.30;47.23;;;;;;;;;;4932588;28;20451;-84
2022/01/26 21:10:00;;;;;;;98.43;47.43;;;;;;;;;;4951166;28;20441;-84
2022/01/26 21:12:31;;;;;;;109.13;50.37;;;;;;;;;;4969920;28;20457;-83
2022/01/26 21:14:59;;;;;;;99.30;49.17;;;;;;;;;;4954542;28;20436;-84
2022/01/26 21:17:29;;;;;;;100.53;49.00;;;;;;;;;;4971134;28;20422;-84
2022/01/26 21:19:55;;;;;;;114.20;50.87;;;;;;;;;;4950913;28;20430;-84
2022/01/26 21:22:21;;;;;;;117.27;53.93;;;;;;;;;;4952152;28;21492;-84
2022/01/26 21:24:47;;;;;;;118.07;54.40;;;;;;;;;;4953337;28;20426;-84
2022/01/26 21:27:16;;;;;;;109.47;54.03;;;;;;;;;;4950974;28;20426;-84
2022/01/26 21:29:42;;;;;;;110.27;53.37;;;;;;;;;;4968940;28;20437;-84
2022/01/26 21:32:09;;;;;;;106.13;53.60;;;;;;;;;;4954553;28;21213;-84
2022/01/26 21:34:35;;;;;;;111.93;55.03;;;;;;;;;;4959114;28;20924;-84
2022/01/26 21:37:01;;;;;;;115.83;54.13;;;;;;;;;;4957800;28;20488;-82